Portada
METAR-TAF:

METAR-TAF

Aeropuertos :

Bergerac, Francia

latitud: 44-49N, longitud: 000-31E, altitud: 51 m

Observación

El informe se hizo hace 22 minutos, a las 08:00 UTC
Viento 3 kt del oeste-suroeste, variando entre sur-suroeste y norte-noroeste
Temperatura 22°C
Humedad 73%
Presión 1018 hPa
Visibilidad 10 km o más
Nubes dispersas a una altura de 1800 ft

METAR: LFBE 140800Z AUTO 24003KT 200V330 9999 SCT018 22/17 Q1018 NOSIG

Hora: 10:22 (08:22 UTC)

Pronóstico

El informe se hizo hace 1 hora y 57 minutos, a las 06:25 UTC
Pronóstico válido del 14 a las 06 UTC al 15 a las 06 UTC
Viento 3 kt con dirección variable
Visibilidad: 3000 m
Cielo nuboso a una altura de 800 ft
neblina
Evolucionando progresivamente
del 14 a las 06 UTC al 14 a las 08 UTC
Visibilidad 10 km o más
sin nubes por debajo de 1500 m y sin presencia de cumulonimbus.

TAF: LFBE 140625Z 1406/1506 VRB03KT 3000 BR BKN008 BECMG 1406/1408 CAVOK

Observaciones y pronósticos meteorológicos de más de 4000 aeropuertos (mensajes METAR y TAF).

Los puntos amarillos y rojos representan las estaciones disponibles.

Ponga el ratón en el punto deseado para ver el nombre de la estación.

Haga clic para ver las observaciones y los pronósticos meteorológicos.

Para cambiar el mapa : haga clic en los botones verdes con una cruz de color negro para hacer un zoom, en el botón verde con un guión para alejar o en las flechas verdes para mapas adyacentes.


METAR-TAF: